Terminal Aerodrome Forecast
Issued by NWS Brownsville, TX

Home | Current Version | Previous Version | Text Only | Print | Product List | Glossary On
Versions: 1 2 3 4 5 6 7 8 9 10 11 12 13 14 15 16 17
000
FTUS44 KBRO 041120
TAFBRO
TAF
KBRO 041120Z 0412/0512 15005KT P6SM FEW020
      TEMPO 0412/0414 5SM BR
     FM041400 15014G20KT P6SM SCT025 BKN035
     FM041700 16017G23KT P6SM SCT030 SCT040
     FM050200 15010KT P6SM SKC=

USA.gov is the U.S. government's official web portal to all federal, state and local government web resources and services.